createdAt,value
2019-03-03T02:22:57.192Z,100301.05
2019-03-03T02:25:26.585Z,100296.39
2019-03-03T02:27:56.045Z,100287.67
2019-03-03T02:30:25.428Z,100279.97
2019-03-03T02:32:55.050Z,100288.30
2019-03-03T02:35:24.417Z,100289.73
2019-03-03T02:37:54.224Z,100284.81
2019-03-03T02:40:25.288Z,100277.10
2019-03-03T02:42:54.718Z,100271.25
2019-03-03T02:45:24.139Z,100262.66
2019-03-03T02:47:53.697Z,100259.95
2019-03-03T02:50:23.119Z,100257.40
2019-03-03T02:52:52.494Z,100263.63
2019-03-03T02:55:22.165Z,100240.96
2019-03-03T03:00:31.790Z,100228.23
2019-03-03T03:06:02.756Z,100243.80
2019-03-03T03:08:51.340Z,100227.78
2019-03-03T03:53:48.698Z,100186.94
2019-03-03T04:02:19.816Z,100170.78
2019-03-03T04:05:08.451Z,100151.20
2019-03-03T04:10:24.950Z,100150.55
2019-03-03T04:13:08.216Z,100153.47
2019-03-03T04:18:58.100Z,100138.18
2019-03-03T04:21:46.596Z,100140.25
2019-03-03T04:27:19.871Z,100139.60
2019-03-03T04:30:08.534Z,100132.39
2019-03-03T04:32:57.044Z,100133.96
2019-03-03T04:35:45.560Z,100127.23
2019-03-03T04:38:34.341Z,100118.02
2019-03-03T04:50:04.172Z,100117.14
2019-03-03T04:55:42.706Z,100109.27
2019-03-03T04:58:31.489Z,100096.69
2019-03-03T05:07:06.055Z,100103.88
2019-03-03T05:09:54.630Z,100097.63
2019-03-03T05:12:43.114Z,100084.81
2019-03-03T05:18:10.815Z,100073.53
2019-03-03T05:20:59.335Z,100077.94
2019-03-03T05:23:28.704Z,100091.25
2019-03-03T05:25:58.060Z,100089.18
2019-03-03T05:28:27.684Z,100085.65
2019-03-03T05:30:57.039Z,100083.32
2019-03-03T05:33:28.792Z,100079.83
2019-03-03T05:35:58.166Z,100079.47
2019-03-03T05:38:27.588Z,100069.83
2019-03-03T05:40:56.938Z,100074.20
2019-03-03T05:43:26.638Z,100078.31
2019-03-03T05:45:56.001Z,100070.86
2019-03-03T05:48:25.906Z,100068.35
2019-03-03T05:50:55.579Z,100085.89
2019-03-03T05:53:24.957Z,100085.89
2019-03-03T05:55:54.938Z,100060.32
2019-03-03T05:58:24.586Z,100062.44
2019-03-03T06:00:53.979Z,100076.29
2019-03-03T06:03:23.357Z,100064.61
2019-03-03T06:05:52.710Z,100055.62
2019-03-03T06:08:22.087Z,100059.75
2019-03-03T06:10:51.737Z,100068.47
2019-03-03T06:13:21.111Z,100072.66
2019-03-03T06:15:50.765Z,100082.24
2019-03-03T06:18:20.158Z,100078.11
2019-03-03T06:20:49.895Z,100073.12
2019-03-03T06:23:19.234Z,100080.48
2019-03-03T06:25:48.898Z,100079.53
2019-03-03T06:28:18.563Z,100075.02
2019-03-03T06:30:48.048Z,100071.64
2019-03-03T06:33:17.715Z,100083.14
2019-03-03T06:35:47.073Z,100084.95
2019-03-03T06:38:31.323Z,100083.85
2019-03-03T06:41:05.752Z,100066.53
2019-03-03T06:43:35.134Z,100066.53
2019-03-03T06:46:05.133Z,100084.33
2019-03-03T06:48:34.844Z,100085.80
2019-03-03T06:51:17.254Z,100078.35
2019-03-03T06:53:47.132Z,100078.35
2019-03-03T06:56:16.680Z,100083.86
2019-03-03T06:58:46.250Z,100068.48
2019-03-03T07:01:16.050Z,100059.83
2019-03-03T07:03:45.465Z,100069.45
2019-03-03T07:06:15.170Z,100072.14
2019-03-03T07:08:44.957Z,100071.64
2019-03-03T07:11:14.661Z,100074.55
2019-03-03T07:14:03.468Z,100072.11
2019-03-03T07:16:34.732Z,100072.11
2019-03-03T07:19:04.342Z,100068.58
2019-03-03T07:21:34.007Z,100060.02
2019-03-03T07:24:03.389Z,100060.02
2019-03-03T07:26:45.920Z,100062.59
2019-03-03T07:29:15.538Z,100062.59
2019-03-03T07:32:04.294Z,100064.77
2019-03-03T07:34:33.691Z,100069.02
2019-03-03T07:37:03.368Z,100073.42
2019-03-03T07:39:53.499Z,100063.02
2019-03-03T07:42:55.133Z,100091.48
2019-03-03T07:45:25.451Z,100091.48
2019-03-03T07:47:55.387Z,100071.69
2019-03-03T07:50:25.397Z,100085.13
2019-03-03T07:52:55.073Z,100075.48
2019-03-03T07:55:24.479Z,100073.24
2019-03-03T07:57:54.141Z,100076.02
2019-03-03T08:00:23.524Z,100092.41
2019-03-03T08:02:53.188Z,100077.34
2019-03-03T08:05:22.572Z,100084.70
2019-03-03T08:07:52.242Z,100094.20
2019-03-03T08:10:21.666Z,100098.60
2019-03-03T08:12:51.258Z,100101.97
2019-03-03T08:15:20.689Z,100101.97
2019-03-03T08:17:50.416Z,100094.16
2019-03-03T08:20:19.809Z,100094.16
2019-03-03T08:23:01.993Z,100099.77
2019-03-03T08:25:32.418Z,100099.77
2019-03-03T08:28:01.853Z,100108.64
2019-03-03T08:30:32.860Z,100107.89
2019-03-03T08:33:02.507Z,100111.53
2019-03-03T08:53:09.108Z,100110.24
2019-03-03T08:58:53.736Z,100099.77
2019-03-03T09:01:42.526Z,100104.78
2019-03-03T09:07:21.079Z,100104.02
2019-03-03T09:10:09.737Z,100111.95
2019-03-03T09:18:35.859Z,100113.89
2019-03-03T09:21:24.667Z,100115.48
2019-03-03T09:24:14.116Z,100110.22
2019-03-03T09:27:02.796Z,100113.63
2019-03-03T09:32:39.423Z,100113.75
2019-03-03T09:49:34.032Z,100110.48
2019-03-03T09:52:22.828Z,100106.16
2019-03-03T09:55:11.305Z,100102.70
2019-03-03T09:57:59.962Z,100108.20
2019-03-03T10:00:48.684Z,100102.67
2019-03-03T10:03:32.201Z,100099.80
2019-03-03T10:06:21.196Z,100099.80
2019-03-03T10:09:09.818Z,100110.56
2019-03-03T10:20:53.906Z,100087.09
2019-03-03T10:26:40.433Z,100100.20
2019-03-03T10:32:44.100Z,100098.02
2019-03-03T10:35:52.210Z,100093.71
2019-03-03T10:38:41.055Z,100093.71
2019-03-03T10:41:29.562Z,100091.86
2019-03-03T10:44:18.056Z,100086.62
2019-03-03T10:47:07.158Z,100083.97
2019-03-03T10:49:55.939Z,100082.33
2019-03-03T10:52:44.472Z,100086.84
2019-03-03T10:58:29.260Z,100076.14
2019-03-03T11:04:13.997Z,100081.81
2019-03-03T11:07:02.501Z,100071.88
2019-03-03T11:12:41.119Z,100076.21
2019-03-03T11:15:38.321Z,100079.12
2019-03-03T11:18:27.395Z,100065.52
2019-03-03T11:23:59.239Z,100070.13
2019-03-03T11:26:48.033Z,100067.39
2019-03-03T11:35:15.824Z,100057.61
2019-03-03T11:38:04.326Z,100069.94
2019-03-03T11:46:31.510Z,100058.95
2019-03-03T12:01:04.459Z,100027.36
2019-03-03T12:12:41.150Z,100028.30
2019-03-03T13:30:47.897Z,99945.58
2019-03-03T13:33:36.713Z,99939.09
2019-03-03T13:36:46.443Z,99931.72
2019-03-03T13:39:36.590Z,99919.99
2019-03-03T13:42:25.070Z,99927.02
2019-03-03T13:44:54.621Z,99932.49
2019-03-03T13:47:23.980Z,99923.38
2019-03-03T13:49:53.671Z,99931.63
2019-03-03T13:52:43.955Z,99915.59
2019-03-03T13:55:26.291Z,99892.04
2019-03-03T13:57:55.635Z,99892.04
2019-03-03T14:00:25.087Z,99918.72
2019-03-03T14:02:54.499Z,99905.24
2019-03-03T14:05:23.946Z,99894.66
2019-03-03T14:07:53.590Z,99892.03
2019-03-03T14:10:44.114Z,99893.43
2019-03-03T14:25:20.022Z,99868.31
2019-03-03T14:27:49.645Z,99868.55
2019-03-03T14:30:38.703Z,99877.63
2019-03-03T14:33:08.353Z,99862.80
2019-03-03T14:35:37.837Z,99868.19
2019-03-03T14:38:07.207Z,99868.67
2019-03-03T14:40:36.792Z,99858.04
2019-03-03T14:43:06.159Z,99868.12
2019-03-03T14:45:37.201Z,99859.67
2019-03-03T14:48:07.306Z,99862.69
2019-03-03T14:50:36.928Z,99861.45
2019-03-03T14:53:06.588Z,99860.11
2019-03-03T14:55:35.961Z,99858.21
2019-03-03T14:58:05.612Z,99851.63
2019-03-03T15:00:35.007Z,99861.93
2019-03-03T15:03:24.329Z,99850.44
2019-03-03T15:05:53.974Z,99855.63
2019-03-03T15:08:23.330Z,99854.60
2019-03-03T15:10:52.826Z,99842.27
2019-03-03T15:13:22.191Z,99848.66
2019-03-03T15:16:11.249Z,99870.23
2019-03-03T15:18:40.774Z,99837.31
2019-03-03T15:21:10.440Z,99836.32
2019-03-03T15:23:39.924Z,99830.09
2019-03-03T15:26:11.069Z,99829.22
2019-03-03T15:28:40.708Z,99826.88
2019-03-03T15:31:10.173Z,99826.88
2019-03-03T15:33:59.152Z,99804.48
2019-03-03T15:36:28.836Z,99804.48
2019-03-03T15:38:58.178Z,99821.38
2019-03-03T15:41:29.181Z,99808.89
2019-03-03T15:43:58.877Z,99812.58
2019-03-03T15:46:28.244Z,99809.68
2019-03-03T15:48:57.922Z,99793.15
2019-03-03T15:51:27.554Z,99807.42
2019-03-03T15:53:57.397Z,99789.34
2019-03-03T15:56:27.071Z,99787.87
2019-03-03T15:58:56.686Z,99792.23
2019-03-03T16:01:26.121Z,99789.55
2019-03-03T16:03:55.462Z,99789.77
2019-03-03T16:06:24.946Z,99789.42
2019-03-03T16:08:54.292Z,99784.23
2019-03-03T16:11:23.945Z,99781.45
2019-03-03T16:13:53.289Z,99782.96
2019-03-03T16:16:23.371Z,99785.81
2019-03-03T16:18:52.721Z,99768.93
2019-03-03T16:21:22.107Z,99781.58
2019-03-03T16:23:51.459Z,99769.56
2019-03-03T16:26:21.153Z,99762.47
2019-03-03T16:28:50.486Z,99762.70
2019-03-03T16:31:20.107Z,99758.59
2019-03-03T16:33:49.483Z,99752.84
2019-03-03T16:36:38.706Z,99747.61
2019-03-03T16:39:08.356Z,99747.61
2019-03-03T16:41:37.721Z,99751.30
2019-03-03T16:44:07.595Z,99739.68
2019-03-03T16:46:37.237Z,99739.96
2019-03-03T16:49:06.597Z,99740.59
2019-03-03T16:51:36.171Z,99735.72
2019-03-03T16:54:05.551Z,99738.26
2019-03-03T16:56:35.226Z,99720.90
2019-03-03T16:59:04.636Z,99727.28
2019-03-03T17:01:34.329Z,99719.04
2019-03-03T17:04:03.704Z,99710.31
2019-03-03T17:06:33.325Z,99714.08
2019-03-03T17:26:51.112Z,99697.31
2019-03-03T17:29:21.149Z,99700.01
2019-03-03T17:31:50.503Z,99678.92
2019-03-03T17:34:20.157Z,99674.23
2019-03-03T17:36:49.507Z,99688.55
2019-03-03T17:39:19.184Z,99683.03
2019-03-03T17:41:48.536Z,99678.54
2019-03-03T17:44:17.926Z,99673.98
2019-03-03T17:46:47.522Z,99673.69
2019-03-03T17:49:16.926Z,99672.53
2019-03-03T17:51:46.340Z,99672.02
2019-03-03T17:54:15.857Z,99667.49
2019-03-03T17:56:45.470Z,99668.48
2019-03-03T17:59:34.762Z,99662.80
2019-03-03T18:02:04.528Z,99663.13
2019-03-03T18:04:35.517Z,99659.75
2019-03-03T18:07:04.922Z,99655.91
2019-03-03T18:09:34.449Z,99653.23
2019-03-03T18:12:03.897Z,99659.14
2019-03-03T18:14:33.494Z,99648.38
2019-03-03T18:17:03.826Z,99621.09
2019-03-03T18:22:55.764Z,99635.59
2019-03-03T18:25:25.424Z,99635.30
2019-03-03T18:27:54.837Z,99631.61
2019-03-03T18:30:43.823Z,99623.16
2019-03-03T18:33:13.546Z,99623.16
2019-03-03T18:35:42.955Z,99627.59
2019-03-03T18:38:12.615Z,99627.11
2019-03-03T18:40:41.977Z,99621.36
2019-03-03T18:43:11.918Z,99618.66
2019-03-03T18:45:41.637Z,99615.45
2019-03-03T18:48:11.003Z,99619.49
2019-03-03T18:50:40.713Z,99607.88
2019-03-03T18:53:10.093Z,99614.09
2019-03-03T18:55:39.799Z,99608.68
2019-03-03T18:58:09.455Z,99607.69
2019-03-03T19:00:38.865Z,99600.61
2019-03-03T19:03:08.838Z,99601.96
2019-03-03T19:11:35.674Z,99611.51
2019-03-03T19:14:05.368Z,99593.09
2019-03-03T19:16:34.766Z,99598.11
2019-03-03T19:19:04.186Z,99595.41
2019-03-03T19:21:33.788Z,99583.45
2019-03-03T19:24:04.076Z,99581.11
2019-03-03T19:26:35.071Z,99585.16
2019-03-03T19:29:04.460Z,99574.20
2019-03-03T19:31:33.902Z,99571.19
2019-03-03T19:34:04.295Z,99564.09
2019-03-03T19:36:33.859Z,99572.19
2019-03-03T19:41:49.087Z,99552.26
2019-03-03T19:44:18.499Z,99550.27
2019-03-03T19:46:47.922Z,99549.75
2019-03-03T19:49:17.304Z,99543.34
2019-03-03T19:51:46.832Z,99538.61
2019-03-03T19:54:16.619Z,99548.40
2019-03-03T19:56:45.980Z,99539.66
2019-03-03T19:59:17.264Z,99542.55
2019-03-03T20:01:58.884Z,99517.36
2019-03-03T20:04:28.291Z,99517.36
2019-03-03T20:06:57.958Z,99522.64
2019-03-03T20:09:27.589Z,99511.69
2019-03-03T20:11:57.244Z,99515.39
2019-03-03T20:14:26.903Z,99503.77
2019-03-03T20:16:58.049Z,99503.78
2019-03-03T20:19:27.671Z,99492.00
2019-03-03T20:21:57.385Z,99482.04
2019-03-03T20:24:26.935Z,99488.65
2019-03-03T20:26:56.300Z,99472.59
2019-03-03T20:29:25.977Z,99467.37
2019-03-03T20:31:55.339Z,99456.23
2019-03-03T20:34:25.012Z,99457.45
2019-03-03T20:36:54.393Z,99449.48
2019-03-03T20:42:05.319Z,99453.05
2019-03-03T20:44:34.989Z,99444.91
2019-03-03T20:47:04.416Z,99442.40
2019-03-03T20:49:34.439Z,99440.70
2019-03-03T20:52:34.959Z,99426.73
2019-03-03T20:55:35.822Z,99421.83
2019-03-03T20:58:05.605Z,99428.27
2019-03-03T21:04:08.997Z,99399.94
2019-03-03T21:06:38.368Z,99398.42
2019-03-03T21:12:29.366Z,99396.59
2019-03-03T21:14:58.717Z,99388.67
2019-03-03T21:17:28.252Z,99387.16
2019-03-03T21:20:28.591Z,99379.23
2019-03-03T21:22:58.124Z,99379.23
2019-03-03T21:25:27.513Z,99380.63
2019-03-03T21:27:56.885Z,99377.98
2019-03-03T21:30:27.905Z,99385.73
2019-03-03T21:32:57.250Z,99378.50
2019-03-03T21:35:26.620Z,99368.41
2019-03-03T21:37:58.892Z,99374.84
2019-03-03T21:40:28.385Z,99385.47
2019-03-03T21:42:58.394Z,99383.63
2019-03-03T21:45:28.986Z,99379.89
2019-03-03T21:47:58.792Z,99358.78
2019-03-03T21:50:30.130Z,99359.13
2019-03-03T21:52:59.528Z,99346.51
2019-03-03T21:55:30.192Z,99350.20
2019-03-03T21:57:59.600Z,99344.81
2019-03-03T22:00:35.226Z,99345.81
2019-03-03T22:03:05.123Z,99344.13
2019-03-03T22:05:34.592Z,99344.13
2019-03-03T22:08:04.784Z,99338.73
2019-03-03T22:10:34.277Z,99346.82
2019-03-03T22:13:09.595Z,99345.81
2019-03-03T22:15:38.940Z,99351.04
2019-03-03T22:18:08.606Z,99338.41
2019-03-03T22:20:38.286Z,99320.01
2019-03-03T22:23:07.648Z,99320.01
2019-03-03T22:25:37.604Z,99331.84
2019-03-03T22:28:07.246Z,99302.33
2019-03-03T22:30:36.613Z,99306.72
2019-03-03T22:33:06.356Z,99294.57
2019-03-03T22:35:35.717Z,99303.02
2019-03-03T22:38:06.102Z,99294.89
2019-03-03T22:40:36.464Z,99294.89
2019-03-03T22:43:06.206Z,99288.00
2019-03-03T22:45:35.580Z,99295.27
2019-03-03T22:48:04.973Z,99295.92
2019-03-03T22:50:34.459Z,99305.52
2019-03-03T22:53:04.757Z,99300.14
2019-03-03T22:56:05.265Z,99311.28
2019-03-03T22:58:34.612Z,99288.34
2019-03-03T23:01:44.879Z,99290.20
2019-03-03T23:08:20.371Z,99275.39
2019-03-03T23:11:20.488Z,99265.28
2019-03-03T23:14:20.800Z,99250.78
2019-03-03T23:17:30.126Z,99200.28
2019-03-03T23:24:12.257Z,99209.06
2019-03-03T23:26:41.647Z,99201.81
2019-03-03T23:29:10.996Z,99199.96
2019-03-03T23:31:40.937Z,99182.73
2019-03-03T23:34:12.063Z,99181.05
2019-03-03T23:36:47.436Z,99177.17
2019-03-03T23:39:16.841Z,99165.88
2019-03-03T23:41:46.566Z,99162.48
2019-03-03T23:44:27.248Z,99135.67
2019-03-03T23:46:56.717Z,99148.17
2019-03-03T23:49:26.086Z,99151.51
2019-03-03T23:51:55.830Z,99167.69
2019-03-03T23:54:25.486Z,99165.52
2019-03-03T23:56:55.093Z,99168.90
2019-03-03T23:59:24.685Z,99160.11
